Time;durP1;ratioP1;P1;durP2;ratioP2;P2;SDS_P1;SDS_P2;PMS_P1;PMS_P2;Temp;Humidity;BMP_temperature;BMP_pressure;BME280_temperature;BME280_humidity;BME280_pressure;Samples;Min_cycle;Max_cycle;Signal;HPM_P1;HPM_P2
2022/12/20 00:01:33;;;;;;;45.77;42.33;;;;;;;-141.22;100.00;65034.22;4974401;28;20509;-51
2022/12/20 00:04:04;;;;;;;44.93;41.83;;;;;;;-141.22;100.00;65034.22;4973759;28;20477;-48
2022/12/20 00:06:35;;;;;;;44.87;41.60;;;;;;;-141.22;100.00;65034.22;4974292;28;20439;-48
2022/12/20 00:09:05;;;;;;;46.90;43.20;;;;;;;-141.22;100.00;65034.22;4974234;28;20502;-50
2022/12/20 00:11:33;;;;;;;46.13;42.60;;;;;;;-141.22;100.00;65034.22;4974689;28;20526;-48
2022/12/20 00:14:01;;;;;;;47.30;44.00;;;;;;;-141.22;100.00;65034.22;4973069;28;20482;-51
2022/12/20 00:16:30;;;;;;;44.20;40.97;;;;;;;-141.22;100.00;65034.22;4974515;28;20435;-48
2022/12/20 00:18:59;;;;;;;46.27;42.13;;;;;;;-141.22;100.00;65034.22;4974091;28;20474;-53
2022/12/20 00:21:28;;;;;;;43.20;40.03;;;;;;;-141.22;100.00;65034.22;4974189;28;20494;-48
2022/12/20 00:23:57;;;;;;;44.97;41.27;;;;;;;-141.22;100.00;65034.22;4974236;28;21299;-47
2022/12/20 00:26:27;;;;;;;44.63;41.50;;;;;;;-141.22;100.00;65034.22;4974141;28;20497;-50
2022/12/20 00:28:55;;;;;;;43.57;40.37;;;;;;;-141.22;100.00;65034.22;4973696;28;21238;-46
2022/12/20 00:31:25;;;;;;;44.20;41.00;;;;;;;-141.22;100.00;65034.22;4974538;28;21029;-50
2022/12/20 00:33:54;;;;;;;42.90;39.83;;;;;;;-141.22;100.00;65034.22;4973986;28;20477;-51
2022/12/20 00:36:24;;;;;;;43.47;40.27;;;;;;;-141.22;100.00;65034.22;4973999;28;20435;-48
2022/12/20 00:38:53;;;;;;;44.77;41.23;;;;;;;-141.22;100.00;65034.22;4972109;28;20466;-49
2022/12/20 00:41:24;;;;;;;43.20;40.13;;;;;;;-141.22;100.00;65034.22;4973451;28;20938;-51
2022/12/20 00:43:53;;;;;;;43.43;40.40;;;;;;;-141.22;100.00;65034.22;4973702;28;20908;-51
2022/12/20 00:46:22;;;;;;;46.00;42.40;;;;;;;-141.22;100.00;65034.22;4972766;28;20435;-47
2022/12/20 00:48:50;;;;;;;43.40;40.07;;;;;;;-141.22;100.00;65034.22;4973226;28;20459;-49
2022/12/20 00:51:20;;;;;;;44.50;41.20;;;;;;;-141.22;100.00;65034.22;4973883;28;20600;-48
2022/12/20 00:53:48;;;;;;;43.50;40.33;;;;;;;-141.22;100.00;65034.22;4972940;28;20482;-47
2022/12/20 00:56:16;;;;;;;45.83;42.10;;;;;;;-141.22;100.00;65034.22;4973357;28;20501;-47
2022/12/20 00:58:45;;;;;;;46.30;42.40;;;;;;;-141.22;100.00;65034.22;4973230;28;20462;-46
2022/12/20 01:01:20;;;;;;;44.77;41.03;;;;;;;-141.22;100.00;65034.22;4973460;28;20445;-50
2022/12/20 01:03:48;;;;;;;45.07;41.57;;;;;;;-141.22;100.00;65034.22;4973186;28;20858;-48
2022/12/20 01:06:17;;;;;;;47.00;43.30;;;;;;;-141.22;100.00;65034.22;4972557;28;20470;-48
2022/12/20 01:08:45;;;;;;;45.33;41.93;;;;;;;-141.22;100.00;65034.22;4972450;28;20529;-49
2022/12/20 01:11:15;;;;;;;45.13;41.03;;;;;;;-141.22;100.00;65034.22;4973535;28;20435;-50
2022/12/20 01:13:46;;;;;;;45.53;41.83;;;;;;;-141.22;100.00;65034.22;4972704;28;20490;-46
2022/12/20 01:16:16;;;;;;;45.50;41.70;;;;;;;-141.22;100.00;65034.22;4972617;28;20501;-48
2022/12/20 01:18:45;;;;;;;46.47;42.37;;;;;;;-141.22;100.00;65034.22;4971967;28;20463;-51
2022/12/20 01:21:14;;;;;;;45.67;42.33;;;;;;;-141.22;100.00;65034.22;4973195;28;20838;-46
2022/12/20 01:23:42;;;;;;;42.97;39.83;;;;;;;-141.22;100.00;65034.22;4973395;28;20458;-49
2022/12/20 01:26:13;;;;;;;45.70;41.73;;;;;;;-141.22;100.00;65034.22;4972588;28;21021;-49
2022/12/20 01:28:42;;;;;;;43.87;40.47;;;;;;;-141.22;100.00;65034.22;4972970;28;20463;-50
2022/12/20 01:31:14;;;;;;;44.87;41.17;;;;;;;-141.22;100.00;65034.22;4972521;28;20445;-51
2022/12/20 01:33:43;;;;;;;44.17;40.37;;;;;;;-141.22;100.00;65034.22;4972927;28;20465;-47
2022/12/20 01:36:13;;;;;;;45.07;41.40;;;;;;;-141.22;100.00;65034.22;4973118;28;20427;-48
2022/12/20 01:38:41;;;;;;;45.60;41.97;;;;;;;-141.22;100.00;65034.22;4969099;28;20479;-48
2022/12/20 01:41:14;;;;;;;44.87;41.33;;;;;;;-141.22;100.00;65034.22;4972916;28;20441;-53
2022/12/20 01:43:49;;;;;;;44.87;41.03;;;;;;;-141.22;100.00;65034.22;4971396;28;21026;-51
2022/12/20 01:46:21;;;;;;;45.33;41.60;;;;;;;-141.22;100.00;65034.22;4972612;28;20430;-48
2022/12/20 01:48:52;;;;;;;46.30;42.37;;;;;;;-141.22;100.00;65034.22;4972462;28;20550;-51
2022/12/20 01:51:21;;;;;;;45.90;42.20;;;;;;;-141.22;100.00;65034.22;4972868;28;20431;-49
2022/12/20 01:53:55;;;;;;;45.13;41.63;;;;;;;-141.22;100.00;65034.22;4972520;28;21062;-49
2022/12/20 01:56:23;;;;;;;46.90;42.93;;;;;;;-141.22;100.00;65034.22;4972414;28;20435;-49
2022/12/20 01:58:53;;;;;;;46.87;42.73;;;;;;;-141.22;100.00;65034.22;4971569;28;20990;-46
2022/12/20 02:01:23;;;;;;;48.03;43.70;;;;;;;-141.22;100.00;65034.22;4972327;28;20481;-47
2022/12/20 02:03:53;;;;;;;49.33;44.00;;;;;;;-141.22;100.00;65034.22;4972172;28;20459;-48
2022/12/20 02:06:24;;;;;;;45.77;42.20;;;;;;;-141.22;100.00;65034.22;4972915;28;20462;-48
2022/12/20 02:08:55;;;;;;;46.17;42.50;;;;;;;-141.22;100.00;65034.22;4971331;28;20997;-47
2022/12/20 02:11:48;;;;;;;45.27;41.57;;;;;;;-141.22;100.00;65034.22;4972904;28;20462;-51
2022/12/20 02:14:31;;;;;;;44.67;41.23;;;;;;;-141.22;100.00;65034.22;4966196;28;20482;-47
2022/12/20 02:17:12;;;;;;;46.20;42.10;;;;;;;-141.22;100.00;65034.22;4968616;28;20469;-50
2022/12/20 02:20:05;;;;;;;44.77;41.33;;;;;;;-141.22;100.00;65034.22;4970594;28;20457;-48
2022/12/20 02:22:46;;;;;;;44.47;41.13;;;;;;;-141.22;100.00;65034.22;4971948;28;20450;-46
2022/12/20 02:25:42;;;;;;;46.30;42.50;;;;;;;-141.22;100.00;65034.22;4971829;28;20443;-47
2022/12/20 02:28:23;;;;;;;45.50;41.57;;;;;;;-141.22;100.00;65034.22;4970258;28;20462;-47
2022/12/20 02:30:56;;;;;;;44.43;41.30;;;;;;;-141.22;100.00;65034.22;4972396;28;20427;-51
2022/12/20 02:33:27;;;;;;;46.60;42.87;;;;;;;-141.22;100.00;65034.22;4971850;28;20826;-48
2022/12/20 02:35:54;;;;;;;45.17;41.67;;;;;;;-141.22;100.00;65034.22;4971649;28;20474;-48
2022/12/20 02:38:28;;;;;;;54.83;43.27;;;;;;;-141.22;100.00;65034.22;4971563;28;20470;-48
2022/12/20 02:41:02;;;;;;;47.03;43.13;;;;;;;-141.22;100.00;65034.22;4971206;28;20437;-51
2022/12/20 02:46:21;;;;;;;46.63;42.83;;;;;;;-141.22;100.00;65034.22;4971385;28;21016;-47
2022/12/20 02:48:51;;;;;;;45.07;41.37;;;;;;;-141.22;100.00;65034.22;4971573;28;20471;-50
2022/12/20 02:51:23;;;;;;;45.20;41.70;;;;;;;-141.22;100.00;65034.22;4971462;28;21130;-46
2022/12/20 02:53:51;;;;;;;46.30;42.60;;;;;;;-141.22;100.00;65034.22;4971706;28;21001;-46
2022/12/20 02:56:27;;;;;;;46.27;42.73;;;;;;;-141.22;100.00;65034.22;4971218;28;20485;-47
2022/12/20 02:59:00;;;;;;;44.23;41.03;;;;;;;-141.22;100.00;65034.22;4971184;28;20980;-46
2022/12/20 03:01:32;;;;;;;43.83;40.40;;;;;;;-141.22;100.00;65034.22;4972017;28;20449;-47
2022/12/20 03:04:01;;;;;;;45.90;42.40;;;;;;;-141.22;100.00;65034.22;4971565;28;20509;-50
2022/12/20 03:06:29;;;;;;;44.43;41.03;;;;;;;-141.22;100.00;65034.22;4970944;28;20431;-50
2022/12/20 03:08:57;;;;;;;45.80;41.80;;;;;;;-141.22;100.00;65034.22;4970998;28;20453;-51
2022/12/20 03:11:25;;;;;;;45.47;41.93;;;;;;;-141.22;100.00;65034.22;4970956;28;20435;-47
2022/12/20 03:13:52;;;;;;;46.13;42.53;;;;;;;-141.22;100.00;65034.22;4970753;28;20466;-48
2022/12/20 03:16:20;;;;;;;46.47;42.87;;;;;;;-141.22;100.00;65034.22;4971553;28;20588;-51
2022/12/20 03:18:49;;;;;;;46.60;42.47;;;;;;;-141.22;100.00;65034.22;4971288;28;20474;-50
2022/12/20 03:21:17;;;;;;;45.77;42.37;;;;;;;-141.22;100.00;65034.22;4971350;28;20439;-48
2022/12/20 03:23:44;;;;;;;45.33;42.23;;;;;;;-141.22;100.00;65034.22;4971579;28;20467;-49
2022/12/20 03:26:12;;;;;;;45.57;41.87;;;;;;;-141.22;100.00;65034.22;4975648;28;20431;-51
2022/12/20 03:28:39;;;;;;;45.87;42.23;;;;;;;-141.22;100.00;65034.22;4974828;28;20463;-49
2022/12/20 03:31:07;;;;;;;46.37;42.80;;;;;;;-141.22;100.00;65034.22;4975238;28;20493;-47
2022/12/20 03:33:35;;;;;;;48.70;43.67;;;;;;;-141.22;100.00;65034.22;4974521;28;21084;-51
2022/12/20 03:36:05;;;;;;;47.00;43.17;;;;;;;-141.22;100.00;65034.22;4974271;28;20474;-49
2022/12/20 03:38:32;;;;;;;45.07;41.50;;;;;;;-141.22;100.00;65034.22;4974529;28;20463;-45
2022/12/20 03:41:00;;;;;;;48.43;44.33;;;;;;;-141.22;100.00;65034.22;4974861;28;20442;-48
2022/12/20 03:43:28;;;;;;;46.53;42.50;;;;;;;-141.22;100.00;65034.22;4974705;28;20822;-46
2022/12/20 03:45:55;;;;;;;44.07;40.90;;;;;;;-141.22;100.00;65034.22;4974202;28;20815;-47
2022/12/20 03:48:23;;;;;;;45.87;42.30;;;;;;;-141.22;100.00;65034.22;4973932;28;20466;-48
2022/12/20 03:50:50;;;;;;;46.03;42.10;;;;;;;-141.22;100.00;65034.22;4974833;28;20435;-48
2022/12/20 03:53:20;;;;;;;46.40;42.63;;;;;;;-141.22;100.00;65034.22;4974642;28;20450;-45
2022/12/20 03:55:47;;;;;;;46.70;42.77;;;;;;;-141.22;100.00;65034.22;4974922;28;20885;-48
2022/12/20 03:58:15;;;;;;;46.20;42.70;;;;;;;-141.22;100.00;65034.22;4974104;28;20482;-49
2022/12/20 04:00:43;;;;;;;46.80;43.00;;;;;;;-141.22;100.00;65034.22;4974981;28;20450;-48
2022/12/20 04:03:11;;;;;;;46.40;42.10;;;;;;;-141.22;100.00;65034.22;4974329;28;20454;-47
2022/12/20 04:05:39;;;;;;;46.83;42.50;;;;;;;-141.22;100.00;65034.22;4974430;28;20526;-48
2022/12/20 04:08:06;;;;;;;47.37;43.30;;;;;;;-141.22;100.00;65034.22;4973216;28;20533;-46
2022/12/20 04:11:14;;;;;;;47.83;43.33;;;;;;;-141.22;100.00;65034.22;4973922;28;20439;-46
2022/12/20 04:13:23;;;;;;;45.17;41.60;;;;;;;-141.22;100.00;65034.22;4974036;28;20442;-48
2022/12/20 04:15:51;;;;;;;48.87;44.93;;;;;;;-141.22;100.00;65034.22;4973765;28;20483;-47
2022/12/20 04:18:26;;;;;;;50.50;46.30;;;;;;;-141.22;100.00;65034.22;4974161;28;20458;-49
2022/12/20 04:20:54;;;;;;;50.03;45.43;;;;;;;-141.22;100.00;65034.22;4974198;28;20445;-47
2022/12/20 04:23:22;;;;;;;49.47;44.83;;;;;;;-141.22;100.00;65034.22;4974207;28;20442;-48
2022/12/20 04:25:51;;;;;;;48.20;44.33;;;;;;;-141.22;100.00;65034.22;4973243;28;20654;-49
2022/12/20 04:28:19;;;;;;;49.03;44.90;;;;;;;-141.22;100.00;65034.22;4973191;28;20470;-45
2022/12/20 04:30:47;;;;;;;48.83;44.73;;;;;;;-141.22;100.00;65034.22;4973660;28;20526;-48
2022/12/20 04:33:14;;;;;;;49.70;45.03;;;;;;;-141.22;100.00;65034.22;4973556;28;20430;-49
2022/12/20 04:35:42;;;;;;;51.27;46.47;;;;;;;-141.22;100.00;65034.22;4972483;28;20479;-49
2022/12/20 04:38:10;;;;;;;49.27;45.17;;;;;;;-141.22;100.00;65034.22;4971989;28;21042;-49
2022/12/20 04:40:38;;;;;;;45.40;41.90;;;;;;;-141.22;100.00;65034.22;4973025;28;20437;-46
2022/12/20 04:43:07;;;;;;;48.57;44.87;;;;;;;-141.22;100.00;65034.22;4974005;28;20445;-50
2022/12/20 04:45:35;;;;;;;47.10;43.30;;;;;;;-141.22;100.00;65034.22;4973220;28;20469;-47
2022/12/20 04:48:03;;;;;;;51.03;45.77;;;;;;;-141.22;100.00;65034.22;4973142;28;20475;-49
2022/12/20 04:50:51;;;;;;;47.67;43.73;;;;;;;-141.22;100.00;65034.22;4972185;28;20531;-50
2022/12/20 04:56:04;;;;;;;49.23;44.97;;;;;;;-141.22;100.00;65034.22;4973390;28;20485;-50
2022/12/20 04:58:34;;;;;;;46.90;43.40;;;;;;;-141.22;100.00;65034.22;4973169;28;20467;-46
2022/12/20 05:01:01;;;;;;;47.90;44.33;;;;;;;-141.22;100.00;65034.22;4973558;28;20982;-49
2022/12/20 05:03:29;;;;;;;47.67;44.00;;;;;;;-141.22;100.00;65034.22;4973168;28;20521;-49
2022/12/20 05:05:57;;;;;;;48.03;44.17;;;;;;;-141.22;100.00;65034.22;4973004;28;20437;-50
2022/12/20 05:08:25;;;;;;;49.03;44.90;;;;;;;-141.22;100.00;65034.22;4972837;28;20473;-51
2022/12/20 05:10:52;;;;;;;48.57;44.50;;;;;;;-141.22;100.00;65034.22;4973370;28;20438;-51
2022/12/20 05:13:20;;;;;;;49.40;45.33;;;;;;;-141.22;100.00;65034.22;4973087;28;20439;-46
2022/12/20 05:15:53;;;;;;;48.97;45.40;;;;;;;-141.22;100.00;65034.22;4972584;28;20857;-52
2022/12/20 05:18:21;;;;;;;48.13;44.37;;;;;;;-141.22;100.00;65034.22;4972748;28;21273;-50
2022/12/20 05:26:16;;;;;;;51.23;46.83;;;;;;;-141.22;100.00;65034.22;4973328;28;20442;-49
2022/12/20 05:26:24;;;;;;;47.40;43.80;;;;;;;-141.22;100.00;65034.22;4972977;28;20537;-49
2022/12/20 05:28:52;;;;;;;48.17;44.20;;;;;;;-141.22;100.00;65034.22;4971975;28;20466;-53
2022/12/20 05:31:21;;;;;;;47.67;43.80;;;;;;;-141.22;100.00;65034.22;4972979;28;20442;-50
2022/12/20 05:33:49;;;;;;;45.07;41.57;;;;;;;-141.22;100.00;65034.22;4973076;28;20497;-48
2022/12/20 05:36:17;;;;;;;46.97;42.67;;;;;;;-141.22;100.00;65034.22;4973043;28;20474;-47
2022/12/20 05:38:45;;;;;;;47.37;43.30;;;;;;;-141.22;100.00;65034.22;4971965;28;20854;-47
2022/12/20 05:41:12;;;;;;;45.40;41.83;;;;;;;-141.22;100.00;65034.22;4973268;28;20431;-52
2022/12/20 05:43:40;;;;;;;47.73;43.33;;;;;;;-141.22;100.00;65034.22;4972037;28;20919;-46
2022/12/20 05:46:07;;;;;;;47.23;43.37;;;;;;;-141.22;100.00;65034.22;4972969;28;20791;-48
2022/12/20 05:48:37;;;;;;;47.37;42.87;;;;;;;-141.22;100.00;65034.22;4971599;28;20473;-48
2022/12/20 05:51:04;;;;;;;46.43;42.67;;;;;;;-141.22;100.00;65034.22;4972970;28;20504;-50
2022/12/20 05:53:32;;;;;;;45.87;42.27;;;;;;;-141.22;100.00;65034.22;4972394;28;21173;-50
2022/12/20 05:56:01;;;;;;;49.43;45.00;;;;;;;-141.22;100.00;65034.22;4972181;28;20435;-49
2022/12/20 05:58:29;;;;;;;46.70;42.80;;;;;;;-141.22;100.00;65034.22;4972373;28;21005;-49
2022/12/20 06:00:56;;;;;;;47.43;43.57;;;;;;;-141.22;100.00;65034.22;4972497;28;20474;-49
2022/12/20 06:03:24;;;;;;;46.13;42.43;;;;;;;-141.22;100.00;65034.22;4971991;28;20472;-51
2022/12/20 06:05:53;;;;;;;45.50;42.07;;;;;;;-141.22;100.00;65034.22;4972537;28;20470;-50
2022/12/20 06:08:22;;;;;;;45.37;41.97;;;;;;;-141.22;100.00;65034.22;4971679;28;20532;-48
2022/12/20 06:10:50;;;;;;;46.10;42.30;;;;;;;-141.22;100.00;65034.22;4972082;28;20474;-49
2022/12/20 06:13:18;;;;;;;44.80;41.20;;;;;;;-141.22;100.00;65034.22;4972285;28;20491;-47
2022/12/20 06:15:46;;;;;;;45.97;42.20;;;;;;;-141.22;100.00;65034.22;4972365;28;20481;-50
2022/12/20 06:18:14;;;;;;;46.63;42.67;;;;;;;-141.22;100.00;65034.22;4970451;28;20482;-53
2022/12/20 06:20:42;;;;;;;45.53;41.67;;;;;;;-141.22;100.00;65034.22;4971503;28;20953;-51
2022/12/20 06:23:11;;;;;;;46.23;42.33;;;;;;;-141.22;100.00;65034.22;4971258;28;20471;-48
2022/12/20 06:25:38;;;;;;;44.10;40.50;;;;;;;-141.22;100.00;65034.22;4971634;28;20442;-47
2022/12/20 06:28:06;;;;;;;46.30;41.90;;;;;;;-141.22;100.00;65034.22;4971951;28;20469;-48
2022/12/20 06:30:34;;;;;;;46.47;42.47;;;;;;;-141.22;100.00;65034.22;4971597;28;20497;-50
2022/12/20 06:33:03;;;;;;;45.90;42.17;;;;;;;-141.22;100.00;65034.22;4971729;28;20454;-51
2022/12/20 06:35:31;;;;;;;46.87;42.57;;;;;;;-141.22;100.00;65034.22;4970994;28;20455;-52
2022/12/20 06:37:58;;;;;;;44.70;41.27;;;;;;;-141.22;100.00;65034.22;4969889;28;20970;-50
2022/12/20 06:40:27;;;;;;;45.43;41.73;;;;;;;-141.22;100.00;65034.22;4971391;28;20935;-48
2022/12/20 06:42:55;;;;;;;43.23;39.90;;;;;;;-141.22;100.00;65034.22;4971867;28;20439;-48
2022/12/20 06:45:22;;;;;;;45.13;40.90;;;;;;;-141.22;100.00;65034.22;4970904;28;20462;-50
2022/12/20 06:47:50;;;;;;;44.63;41.13;;;;;;;-141.22;100.00;65034.22;4969290;28;20476;-47
2022/12/20 06:50:18;;;;;;;45.07;41.70;;;;;;;-141.22;100.00;65034.22;4971270;28;20439;-46
2022/12/20 06:52:46;;;;;;;44.87;41.27;;;;;;;-141.22;100.00;65034.22;4971310;28;20515;-46
2022/12/20 06:55:13;;;;;;;44.23;40.60;;;;;;;-141.22;100.00;65034.22;4970606;28;20870;-47
2022/12/20 06:57:42;;;;;;;45.23;41.50;;;;;;;-141.22;100.00;65034.22;4971045;28;20481;-48
2022/12/20 07:00:12;;;;;;;43.87;40.27;;;;;;;-141.22;100.00;65034.22;4970880;28;20426;-48
2022/12/20 07:02:40;;;;;;;45.07;41.37;;;;;;;-141.22;100.00;65034.22;4971244;28;20509;-46
2022/12/20 07:05:08;;;;;;;45.07;41.17;;;;;;;-141.22;100.00;65034.22;4971200;28;20490;-48
2022/12/20 07:07:36;;;;;;;43.53;39.60;;;;;;;-141.22;100.00;65034.22;4971594;28;20525;-48
2022/12/20 07:10:11;;;;;;;42.90;39.20;;;;;;;-141.22;100.00;65034.22;4971177;28;20458;-53
2022/12/20 07:12:39;;;;;;;43.13;39.90;;;;;;;-141.22;100.00;65034.22;4970786;28;20437;-50
2022/12/20 07:15:16;;;;;;;43.40;39.87;;;;;;;-141.22;100.00;65034.22;4970669;28;20458;-50
2022/12/20 07:17:44;;;;;;;42.97;39.40;;;;;;;-141.22;100.00;65034.22;4971225;28;20483;-46
2022/12/20 07:20:12;;;;;;;43.63;40.33;;;;;;;-141.22;100.00;65034.22;4971580;28;20434;-47
2022/12/20 07:22:41;;;;;;;42.97;39.70;;;;;;;-141.22;100.00;65034.22;4971646;28;20446;-46
2022/12/20 07:25:10;;;;;;;42.97;39.87;;;;;;;-141.22;100.00;65034.22;4971471;28;20459;-47
2022/12/20 07:27:38;;;;;;;43.37;39.70;;;;;;;-141.22;100.00;65034.22;4970901;28;20493;-48
2022/12/20 07:30:06;;;;;;;42.87;39.63;;;;;;;-141.22;100.00;65034.22;4971262;28;20529;-51
2022/12/20 07:32:36;;;;;;;42.40;39.20;;;;;;;-141.22;100.00;65034.22;4970893;28;20854;-53
2022/12/20 07:35:04;;;;;;;43.00;39.70;;;;;;;-141.22;100.00;65034.22;4970826;28;20510;-49
2022/12/20 07:37:31;;;;;;;42.33;39.13;;;;;;;-141.22;100.00;65034.22;4970489;28;20477;-52
2022/12/20 07:39:59;;;;;;;42.17;39.37;;;;;;;-141.22;100.00;65034.22;4970636;28;20495;-51
2022/12/20 07:42:27;;;;;;;44.77;41.37;;;;;;;-141.22;100.00;65034.22;4971309;28;20439;-48
2022/12/20 07:45:05;;;;;;;45.00;41.60;;;;;;;-141.22;100.00;65034.22;4970851;28;20490;-46
2022/12/20 07:47:34;;;;;;;42.90;39.90;;;;;;;-141.22;100.00;65034.22;4970316;28;20475;-47
2022/12/20 07:50:03;;;;;;;43.77;40.50;;;;;;;-141.22;100.00;65034.22;4970828;28;20439;-54
2022/12/20 07:52:34;;;;;;;46.30;42.03;;;;;;;-141.22;100.00;65034.22;4971164;28;20431;-49
2022/12/20 07:55:05;;;;;;;44.60;41.30;;;;;;;-141.22;100.00;65034.22;4970418;28;20459;-49
2022/12/20 07:57:37;;;;;;;44.47;41.37;;;;;;;-141.22;100.00;65034.22;4970544;28;20477;-51
2022/12/20 08:00:06;;;;;;;44.40;40.97;;;;;;;-141.22;100.00;65034.22;4971255;28;20446;-51
2022/12/20 08:02:37;;;;;;;41.80;38.43;;;;;;;-141.22;100.00;65034.22;4971056;28;20521;-48
2022/12/20 08:05:08;;;;;;;43.33;39.63;;;;;;;-141.22;100.00;65034.22;4970152;28;20459;-46
2022/12/20 08:07:39;;;;;;;42.80;39.70;;;;;;;-141.22;100.00;65034.22;4970441;28;20458;-49
2022/12/20 08:10:11;;;;;;;42.13;38.83;;;;;;;-141.22;100.00;65034.22;4971226;28;20445;-52
2022/12/20 08:12:40;;;;;;;43.27;40.00;;;;;;;-141.22;100.00;65034.22;4974951;28;20438;-53
2022/12/20 08:15:09;;;;;;;41.93;38.87;;;;;;;-141.22;100.00;65034.22;4974668;28;20455;-49
2022/12/20 08:17:36;;;;;;;43.73;40.23;;;;;;;-141.22;100.00;65034.22;4972882;28;20478;-49
2022/12/20 08:20:08;;;;;;;43.33;40.00;;;;;;;-141.22;100.00;65034.22;4973940;28;20422;-46
2022/12/20 08:22:36;;;;;;;44.03;40.63;;;;;;;-141.22;100.00;65034.22;4974088;28;20435;-49
2022/12/20 08:25:04;;;;;;;42.83;39.80;;;;;;;-141.22;100.00;65034.22;4973624;28;20558;-48
2022/12/20 08:27:32;;;;;;;44.30;41.03;;;;;;;-141.22;100.00;65034.22;4973032;28;20521;-49
2022/12/20 08:30:00;;;;;;;45.13;41.90;;;;;;;-141.22;100.00;65034.22;4973794;28;20442;-48
2022/12/20 08:32:28;;;;;;;43.33;39.90;;;;;;;-141.22;100.00;65034.22;4974143;28;20438;-50
2022/12/20 08:34:55;;;;;;;42.13;39.03;;;;;;;-141.22;100.00;65034.22;4973153;28;20454;-50
2022/12/20 08:37:24;;;;;;;43.40;40.00;;;;;;;-141.22;100.00;65034.22;4973375;28;20825;-47
2022/12/20 08:39:52;;;;;;;44.00;40.70;;;;;;;-141.22;100.00;65034.22;4974009;28;20451;-47
2022/12/20 08:42:20;;;;;;;43.20;39.90;;;;;;;-141.22;100.00;65034.22;4973758;28;20947;-49
2022/12/20 08:44:47;;;;;;;44.47;41.27;;;;;;;-141.22;100.00;65034.22;4972315;28;20489;-50
2022/12/20 08:47:15;;;;;;;44.50;41.20;;;;;;;-141.22;100.00;65034.22;4973555;28;20470;-48
2022/12/20 08:49:42;;;;;;;43.27;40.20;;;;;;;-141.22;100.00;65034.22;4973534;28;20430;-51
2022/12/20 08:52:14;;;;;;;44.30;40.67;;;;;;;-141.22;100.00;65034.22;4973981;28;20439;-48
2022/12/20 08:54:43;;;;;;;43.23;39.93;;;;;;;-141.22;100.00;65034.22;4973588;28;20455;-48
2022/12/20 08:57:11;;;;;;;41.80;38.70;;;;;;;-141.22;100.00;65034.22;4973173;28;21213;-47
2022/12/20 08:59:39;;;;;;;45.60;41.40;;;;;;;-141.22;100.00;65034.22;4973164;28;20479;-46
2022/12/20 09:02:07;;;;;;;44.07;40.67;;;;;;;-141.22;100.00;65034.22;4973295;28;20481;-49
2022/12/20 09:04:35;;;;;;;43.47;40.20;;;;;;;-141.22;100.00;65034.22;4973389;28;20463;-46
2022/12/20 09:07:03;;;;;;;44.60;40.50;;;;;;;-141.22;100.00;65034.22;4973600;28;20984;-46
2022/12/20 09:09:31;;;;;;;44.87;41.33;;;;;;;-141.22;100.00;65034.22;4972945;28;20534;-48
2022/12/20 09:12:00;;;;;;;42.90;39.53;;;;;;;-141.22;100.00;65034.22;4973244;28;20446;-48
2022/12/20 09:14:28;;;;;;;42.97;39.77;;;;;;;-141.22;100.00;65034.22;4973010;28;20454;-48
2022/12/20 09:16:55;;;;;;;44.83;41.40;;;;;;;-141.22;100.00;65034.22;4972552;28;20459;-47
2022/12/20 09:19:23;;;;;;;44.67;41.30;;;;;;;-141.22;100.00;65034.22;4972940;28;20479;-49
2022/12/20 09:21:51;;;;;;;45.63;42.10;;;;;;;-141.22;100.00;65034.22;4972435;28;20443;-48
2022/12/20 09:24:19;;;;;;;47.17;43.57;;;;;;;-141.22;100.00;65034.22;4972664;28;21058;-49
2022/12/20 09:26:46;;;;;;;44.47;41.40;;;;;;;-141.22;100.00;65034.22;4972123;28;21373;-49
2022/12/20 09:29:18;;;;;;;45.00;41.80;;;;;;;-141.22;100.00;65034.22;4972984;28;20427;-53
2022/12/20 09:31:56;;;;;;;43.23;40.33;;;;;;;-141.22;100.00;65034.22;4973508;28;20431;-49
2022/12/20 09:34:24;;;;;;;43.63;40.53;;;;;;;-141.22;100.00;65034.22;4972810;28;20912;-50
2022/12/20 09:36:51;;;;;;;44.13;40.90;;;;;;;-141.22;100.00;65034.22;4971871;28;21009;-47
2022/12/20 09:39:19;;;;;;;43.23;40.30;;;;;;;-141.22;100.00;65034.22;4972509;28;20533;-49
2022/12/20 09:41:47;;;;;;;42.90;39.40;;;;;;;-141.22;100.00;65034.22;4972915;28;20438;-46
2022/12/20 09:44:23;;;;;;;43.60;40.47;;;;;;;-141.22;100.00;65034.22;4972761;28;20494;-46
2022/12/20 09:46:55;;;;;;;43.00;40.07;;;;;;;-141.22;100.00;65034.22;4972031;28;20465;-48
2022/12/20 09:49:28;;;;;;;44.83;41.47;;;;;;;-141.22;100.00;65034.22;4972153;28;20438;-46
2022/12/20 09:52:22;;;;;;;43.43;40.27;;;;;;;-141.22;100.00;65034.22;4972638;28;20460;-46
2022/12/20 09:54:56;;;;;;;42.13;39.27;;;;;;;-141.22;100.00;65034.22;4971628;28;20455;-49
2022/12/20 09:57:34;;;;;;;41.23;38.43;;;;;;;-141.22;100.00;65034.22;4971891;28;20462;-54
2022/12/20 10:00:11;;;;;;;42.00;38.90;;;;;;;-141.22;100.00;65034.22;4972587;28;20838;-47
2022/12/20 10:02:39;;;;;;;41.30;38.30;;;;;;;-141.22;100.00;65034.22;4972618;28;20882;-51
2022/12/20 10:05:35;;;;;;;40.70;37.60;;;;;;;-141.22;100.00;65034.22;4972363;28;20497;-49
2022/12/20 10:08:17;;;;;;;41.43;38.23;;;;;;;-141.22;100.00;65034.22;4971507;28;20466;-46
2022/12/20 10:10:56;;;;;;;41.00;38.27;;;;;;;-141.22;100.00;65034.22;4972082;28;20437;-50
2022/12/20 10:13:40;;;;;;;41.33;38.43;;;;;;;-141.22;100.00;65034.22;4972146;28;20441;-49
2022/12/20 10:16:20;;;;;;;41.73;38.90;;;;;;;-141.22;100.00;65034.22;4971812;28;20431;-50
2022/12/20 10:19:00;;;;;;;40.77;38.03;;;;;;;-141.22;100.00;65034.22;4971102;28;20482;-50
2022/12/20 10:21:40;;;;;;;40.77;38.07;;;;;;;-141.22;100.00;65034.22;4971482;28;20435;-51
2022/12/20 10:24:16;;;;;;;42.27;39.30;;;;;;;-141.22;100.00;65034.22;4971133;28;20458;-49
2022/12/20 10:26:44;;;;;;;41.37;38.23;;;;;;;-141.22;100.00;65034.22;4971259;28;20442;-49
2022/12/20 10:29:12;;;;;;;41.13;38.00;;;;;;;-141.22;100.00;65034.22;4971748;28;20435;-48
2022/12/20 10:31:41;;;;;;;40.67;37.60;;;;;;;-141.22;100.00;65034.22;4971942;28;20442;-47
2022/12/20 10:34:09;;;;;;;41.60;38.63;;;;;;;-141.22;100.00;65034.22;4970738;28;20490;-46
2022/12/20 10:36:37;;;;;;;39.40;36.80;;;;;;;-141.22;100.00;65034.22;4969875;28;20427;-47
2022/12/20 10:39:07;;;;;;;40.00;36.90;;;;;;;-141.22;100.00;65034.22;4972086;28;20471;-47
2022/12/20 10:41:50;;;;;;;40.73;37.80;;;;;;;-141.22;100.00;65034.22;4972374;28;20435;-46
2022/12/20 10:44:23;;;;;;;41.13;38.13;;;;;;;-141.22;100.00;65034.22;4970922;28;20462;-47
2022/12/20 10:46:54;;;;;;;38.27;35.87;;;;;;;-141.22;100.00;65034.22;4970280;28;20454;-48
2022/12/20 10:49:29;;;;;;;40.47;37.53;;;;;;;-141.22;100.00;65034.22;4971390;28;20423;-48
2022/12/20 10:52:00;;;;;;;39.20;36.57;;;;;;;-141.22;100.00;65034.22;4972110;28;20431;-47
2022/12/20 10:54:36;;;;;;;40.20;37.40;;;;;;;-141.22;100.00;65034.22;4971643;28;20447;-48
2022/12/20 10:57:17;;;;;;;38.17;35.27;;;;;;;-141.22;100.00;65034.22;4971375;28;20454;-48
2022/12/20 10:59:50;;;;;;;39.30;36.40;;;;;;;-141.22;100.00;65034.22;4971331;28;20479;-47
2022/12/20 11:02:28;;;;;;;38.17;35.37;;;;;;;-141.22;100.00;65034.22;5010840;23;20572;-49
2022/12/20 11:05:22;;;;;;;39.80;36.87;;;;;;;-141.22;100.00;65034.22;5004179;28;20425;-48
2022/12/20 11:07:54;;;;;;;39.00;36.23;;;;;;;-141.22;100.00;65034.22;5011382;28;20954;-46
2022/12/20 11:10:43;;;;;;;39.03;36.23;;;;;;;-141.22;100.00;65034.22;5012002;28;20433;-50
2022/12/20 11:13:20;;;;;;;39.10;36.20;;;;;;;-141.22;100.00;65034.22;5026616;28;20585;-49
2022/12/20 11:15:50;;;;;;;39.87;37.17;;;;;;;-141.22;100.00;65034.22;5031354;28;20954;-50
2022/12/20 11:18:28;;;;;;;37.77;35.27;;;;;;;-141.22;100.00;65034.22;5031137;28;20811;-50